X  Cerrar Datos meteorológicos de aviación METAR     LEAL Alicante-Elche Miguel Hernández Airport
Temperatura
19°C Temperatura
10°C Punto de rocío
56% Humedad



Viento
19 KM/H
12 MPH
5 M/S
10 NUDO



110°
ESE
Condiciones actuales

Parcialmente nublado Parcialmente nublado
Presión 1016.93 (hPa) - 30.03 (inHg)
Visibilidad 6 (milla) - 9.7 (km)
Aeropuerto
Código de aeropuerto LEAL

localidad: Alicante-Elche Miguel Hernández Airport
Distancia: 10 (km)

Metar:
LEAL 211130Z 11010KT 070V150 9999 FEW040 19/10 Q1017 NOSIG

Hora: 21-04-2024 13:30 CEST